sensor_id;sensor_type;location;lat;lon;timestamp;temperature;humidity
30473;DHT22;17263;48.160;11.452;2023-01-04T00:00:27;4.20;99.90
30473;DHT22;17263;48.160;11.452;2023-01-04T00:02:53;4.10;99.90
30473;DHT22;17263;48.160;11.452;2023-01-04T00:05:19;4.10;99.90
30473;DHT22;17263;48.160;11.452;2023-01-04T00:07:45;4.10;99.90
30473;DHT22;17263;48.160;11.452;2023-01-04T00:10:12;4.00;99.90
30473;DHT22;17263;48.160;11.452;2023-01-04T00:12:39;3.90;99.90
30473;DHT22;17263;48.160;11.452;2023-01-04T00:15:05;3.90;99.90
30473;DHT22;17263;48.160;11.452;2023-01-04T00:17:32;3.90;99.90
30473;DHT22;17263;48.160;11.452;2023-01-04T00:19:58;3.90;99.90
30473;DHT22;17263;48.160;11.452;2023-01-04T00:22:25;3.90;99.90
30473;DHT22;17263;48.160;11.452;2023-01-04T00:24:53;3.90;99.90
30473;DHT22;17263;48.160;11.452;2023-01-04T00:27:19;3.90;99.90
30473;DHT22;17263;48.160;11.452;2023-01-04T00:29:45;3.90;99.90
30473;DHT22;17263;48.160;11.452;2023-01-04T00:32:11;3.80;99.90
30473;DHT22;17263;48.160;11.452;2023-01-04T00:34:37;3.70;99.90
30473;DHT22;17263;48.160;11.452;2023-01-04T00:37:03;3.70;99.90
30473;DHT22;17263;48.160;11.452;2023-01-04T00:39:29;3.60;99.90
30473;DHT22;17263;48.160;11.452;2023-01-04T00:41:55;3.60;99.90
30473;DHT22;17263;48.160;11.452;2023-01-04T00:44:33;3.60;99.90
30473;DHT22;17263;48.160;11.452;2023-01-04T00:47:01;3.60;99.90
30473;DHT22;17263;48.160;11.452;2023-01-04T00:49:28;3.60;99.90
30473;DHT22;17263;48.160;11.452;2023-01-04T00:51:54;3.50;99.90
30473;DHT22;17263;48.160;11.452;2023-01-04T00:54:21;3.50;99.90
30473;DHT22;17263;48.160;11.452;2023-01-04T00:56:47;3.50;99.90
30473;DHT22;17263;48.160;11.452;2023-01-04T00:59:15;3.50;99.90
30473;DHT22;17263;48.160;11.452;2023-01-04T01:01:42;3.50;99.90
30473;DHT22;17263;48.160;11.452;2023-01-04T01:04:11;3.40;99.90
30473;DHT22;17263;48.160;11.452;2023-01-04T01:06:38;3.40;99.90
30473;DHT22;17263;48.160;11.452;2023-01-04T01:09:04;3.40;99.90
30473;DHT22;17263;48.160;11.452;2023-01-04T01:11:30;3.40;99.90
30473;DHT22;17263;48.160;11.452;2023-01-04T01:13:56;3.40;99.90
30473;DHT22;17263;48.160;11.452;2023-01-04T01:16:24;3.40;99.90
30473;DHT22;17263;48.160;11.452;2023-01-04T01:18:52;3.40;99.90
30473;DHT22;17263;48.160;11.452;2023-01-04T01:21:21;3.40;99.90
30473;DHT22;17263;48.160;11.452;2023-01-04T01:23:48;3.40;99.90
30473;DHT22;17263;48.160;11.452;2023-01-04T01:26:17;3.40;99.90
30473;DHT22;17263;48.160;11.452;2023-01-04T01:28:43;3.40;99.90
30473;DHT22;17263;48.160;11.452;2023-01-04T01:31:18;3.50;99.90
30473;DHT22;17263;48.160;11.452;2023-01-04T01:33:46;3.50;99.90
30473;DHT22;17263;48.160;11.452;2023-01-04T01:36:13;3.50;99.90
30473;DHT22;17263;48.160;11.452;2023-01-04T01:38:40;3.50;99.90
30473;DHT22;17263;48.160;11.452;2023-01-04T01:41:09;3.50;99.90
30473;DHT22;17263;48.160;11.452;2023-01-04T01:43:51;3.60;99.90
30473;DHT22;17263;48.160;11.452;2023-01-04T01:46:33;3.50;99.90
30473;DHT22;17263;48.160;11.452;2023-01-04T01:49:04;3.60;99.90
30473;DHT22;17263;48.160;11.452;2023-01-04T01:51:34;3.70;99.90
30473;DHT22;17263;48.160;11.452;2023-01-04T01:54:12;3.70;99.90
30473;DHT22;17263;48.160;11.452;2023-01-04T01:56:40;3.70;99.90
30473;DHT22;17263;48.160;11.452;2023-01-04T01:59:09;3.70;99.90
30473;DHT22;17263;48.160;11.452;2023-01-04T02:01:35;3.70;99.90
30473;DHT22;17263;48.160;11.452;2023-01-04T02:04:02;3.70;99.90
30473;DHT22;17263;48.160;11.452;2023-01-04T02:06:32;3.70;99.90
30473;DHT22;17263;48.160;11.452;2023-01-04T02:09:01;3.70;99.90
30473;DHT22;17263;48.160;11.452;2023-01-04T02:11:27;3.70;99.90
30473;DHT22;17263;48.160;11.452;2023-01-04T02:13:54;3.70;99.90
30473;DHT22;17263;48.160;11.452;2023-01-04T02:38:44;3.90;99.90
30473;DHT22;17263;48.160;11.452;2023-01-04T02:43:55;4.00;99.90
30473;DHT22;17263;48.160;11.452;2023-01-04T02:46:48;4.00;99.90
30473;DHT22;17263;48.160;11.452;2023-01-04T02:49:15;4.10;99.90
30473;DHT22;17263;48.160;11.452;2023-01-04T02:51:59;4.10;99.90
30473;DHT22;17263;48.160;11.452;2023-01-04T02:54:28;4.20;99.90
30473;DHT22;17263;48.160;11.452;2023-01-04T02:57:33;4.20;99.90
30473;DHT22;17263;48.160;11.452;2023-01-04T03:08:53;4.00;99.90
30473;DHT22;17263;48.160;11.452;2023-01-04T03:11:20;3.90;99.90
30473;DHT22;17263;48.160;11.452;2023-01-04T03:14:26;3.90;99.90
30473;DHT22;17263;48.160;11.452;2023-01-04T03:16:55;3.80;99.90
30473;DHT22;17263;48.160;11.452;2023-01-04T03:19:23;3.70;99.90
30473;DHT22;17263;48.160;11.452;2023-01-04T03:22:11;3.70;99.90
30473;DHT22;17263;48.160;11.452;2023-01-04T03:24:58;3.70;99.90
30473;DHT22;17263;48.160;11.452;2023-01-04T03:28:05;3.80;99.90
30473;DHT22;17263;48.160;11.452;2023-01-04T03:31:56;3.80;99.90
30473;DHT22;17263;48.160;11.452;2023-01-04T03:34:07;3.80;99.90
30473;DHT22;17263;48.160;11.452;2023-01-04T03:37:03;3.80;99.90
30473;DHT22;17263;48.160;11.452;2023-01-04T03:39:59;3.90;99.90
30473;DHT22;17263;48.160;11.452;2023-01-04T03:43:14;3.90;99.90
30473;DHT22;17263;48.160;11.452;2023-01-04T03:46:10;3.90;99.90
30473;DHT22;17263;48.160;11.452;2023-01-04T03:49:01;3.90;99.90
30473;DHT22;17263;48.160;11.452;2023-01-04T03:51:34;3.90;99.90
30473;DHT22;17263;48.160;11.452;2023-01-04T03:54:07;3.90;99.90
30473;DHT22;17263;48.160;11.452;2023-01-04T03:56:37;3.80;99.90
30473;DHT22;17263;48.160;11.452;2023-01-04T03:59:06;3.70;99.90
30473;DHT22;17263;48.160;11.452;2023-01-04T04:01:34;3.70;99.90
30473;DHT22;17263;48.160;11.452;2023-01-04T04:04:01;3.70;99.90
30473;DHT22;17263;48.160;11.452;2023-01-04T04:06:45;3.70;99.90
30473;DHT22;17263;48.160;11.452;2023-01-04T04:09:30;3.60;99.90
30473;DHT22;17263;48.160;11.452;2023-01-04T04:11:57;3.50;99.90
30473;DHT22;17263;48.160;11.452;2023-01-04T04:14:23;3.60;99.90
30473;DHT22;17263;48.160;11.452;2023-01-04T04:16:49;3.50;99.90
30473;DHT22;17263;48.160;11.452;2023-01-04T04:19:15;3.50;99.90
30473;DHT22;17263;48.160;11.452;2023-01-04T04:21:41;3.50;99.90
30473;DHT22;17263;48.160;11.452;2023-01-04T04:24:16;3.50;99.90
30473;DHT22;17263;48.160;11.452;2023-01-04T04:26:42;3.50;99.90
30473;DHT22;17263;48.160;11.452;2023-01-04T04:29:08;3.50;99.90
30473;DHT22;17263;48.160;11.452;2023-01-04T04:31:34;3.50;99.90
30473;DHT22;17263;48.160;11.452;2023-01-04T04:34:00;3.50;99.90
30473;DHT22;17263;48.160;11.452;2023-01-04T04:36:26;3.50;99.90
30473;DHT22;17263;48.160;11.452;2023-01-04T04:38:52;3.50;99.90
30473;DHT22;17263;48.160;11.452;2023-01-04T04:41:18;3.50;99.90
30473;DHT22;17263;48.160;11.452;2023-01-04T04:44:13;3.50;99.90
30473;DHT22;17263;48.160;11.452;2023-01-04T04:46:40;3.50;99.90
30473;DHT22;17263;48.160;11.452;2023-01-04T04:49:08;3.50;99.90
30473;DHT22;17263;48.160;11.452;2023-01-04T04:51:34;3.50;99.90
30473;DHT22;17263;48.160;11.452;2023-01-04T04:54:01;3.50;99.90
30473;DHT22;17263;48.160;11.452;2023-01-04T04:56:27;3.50;99.90
30473;DHT22;17263;48.160;11.452;2023-01-04T04:58:53;3.50;99.90
30473;DHT22;17263;48.160;11.452;2023-01-04T05:01:20;3.50;99.90
30473;DHT22;17263;48.160;11.452;2023-01-04T05:03:46;3.50;99.90
30473;DHT22;17263;48.160;11.452;2023-01-04T05:06:12;3.40;99.90
30473;DHT22;17263;48.160;11.452;2023-01-04T05:08:38;3.50;99.90
30473;DHT22;17263;48.160;11.452;2023-01-04T05:11:06;3.40;99.90
30473;DHT22;17263;48.160;11.452;2023-01-04T05:13:32;3.40;99.90
30473;DHT22;17263;48.160;11.452;2023-01-04T05:15:59;3.40;99.90
30473;DHT22;17263;48.160;11.452;2023-01-04T05:18:26;3.50;99.90
30473;DHT22;17263;48.160;11.452;2023-01-04T05:20:52;3.50;99.90
30473;DHT22;17263;48.160;11.452;2023-01-04T05:23:19;3.50;99.90
30473;DHT22;17263;48.160;11.452;2023-01-04T05:25:50;3.50;99.90
30473;DHT22;17263;48.160;11.452;2023-01-04T05:28:18;3.50;99.90
30473;DHT22;17263;48.160;11.452;2023-01-04T05:30:44;3.50;99.90
30473;DHT22;17263;48.160;11.452;2023-01-04T05:35:46;3.50;99.90
30473;DHT22;17263;48.160;11.452;2023-01-04T05:38:13;3.50;99.90
30473;DHT22;17263;48.160;11.452;2023-01-04T05:40:39;3.50;99.90
30473;DHT22;17263;48.160;11.452;2023-01-04T05:43:06;3.40;99.90
30473;DHT22;17263;48.160;11.452;2023-01-04T05:45:32;3.40;99.90
30473;DHT22;17263;48.160;11.452;2023-01-04T05:47:58;3.40;99.90
30473;DHT22;17263;48.160;11.452;2023-01-04T05:50:24;3.40;99.90
30473;DHT22;17263;48.160;11.452;2023-01-04T05:52:52;3.40;99.90
30473;DHT22;17263;48.160;11.452;2023-01-04T05:55:18;3.40;99.90
30473;DHT22;17263;48.160;11.452;2023-01-04T05:57:44;3.30;99.90
30473;DHT22;17263;48.160;11.452;2023-01-04T06:00:11;3.30;99.90
30473;DHT22;17263;48.160;11.452;2023-01-04T06:02:38;3.30;99.90
30473;DHT22;17263;48.160;11.452;2023-01-04T06:05:05;3.30;99.90
30473;DHT22;17263;48.160;11.452;2023-01-04T06:07:31;3.30;99.90
30473;DHT22;17263;48.160;11.452;2023-01-04T06:09:57;3.40;99.90
30473;DHT22;17263;48.160;11.452;2023-01-04T06:12:24;3.40;99.90
30473;DHT22;17263;48.160;11.452;2023-01-04T06:14:50;3.50;99.90
30473;DHT22;17263;48.160;11.452;2023-01-04T06:17:16;3.50;99.90
30473;DHT22;17263;48.160;11.452;2023-01-04T06:19:42;3.60;99.90
30473;DHT22;17263;48.160;11.452;2023-01-04T06:22:08;3.70;99.90
30473;DHT22;17263;48.160;11.452;2023-01-04T06:24:34;3.70;99.90
30473;DHT22;17263;48.160;11.452;2023-01-04T06:27:01;3.80;99.90
30473;DHT22;17263;48.160;11.452;2023-01-04T06:29:28;3.80;99.90
30473;DHT22;17263;48.160;11.452;2023-01-04T06:31:54;3.90;99.90
30473;DHT22;17263;48.160;11.452;2023-01-04T06:34:20;3.90;99.90
30473;DHT22;17263;48.160;11.452;2023-01-04T06:36:46;3.90;99.90
30473;DHT22;17263;48.160;11.452;2023-01-04T06:39:12;4.00;99.90
30473;DHT22;17263;48.160;11.452;2023-01-04T06:41:38;3.90;99.90
30473;DHT22;17263;48.160;11.452;2023-01-04T06:44:04;3.90;99.90
30473;DHT22;17263;48.160;11.452;2023-01-04T06:46:30;3.90;99.90
30473;DHT22;17263;48.160;11.452;2023-01-04T06:48:56;3.80;99.90
30473;DHT22;17263;48.160;11.452;2023-01-04T06:51:23;3.80;99.90
30473;DHT22;17263;48.160;11.452;2023-01-04T06:53:49;3.80;99.90
30473;DHT22;17263;48.160;11.452;2023-01-04T06:56:15;3.70;99.90
30473;DHT22;17263;48.160;11.452;2023-01-04T06:58:41;3.70;99.90
30473;DHT22;17263;48.160;11.452;2023-01-04T07:01:07;3.70;99.90
30473;DHT22;17263;48.160;11.452;2023-01-04T07:03:33;3.70;99.90
30473;DHT22;17263;48.160;11.452;2023-01-04T07:06:03;3.70;99.90
30473;DHT22;17263;48.160;11.452;2023-01-04T07:08:31;3.80;99.90
30473;DHT22;17263;48.160;11.452;2023-01-04T07:10:57;3.80;99.90
30473;DHT22;17263;48.160;11.452;2023-01-04T07:13:23;3.80;99.90
30473;DHT22;17263;48.160;11.452;2023-01-04T07:15:49;3.80;99.90
30473;DHT22;17263;48.160;11.452;2023-01-04T07:18:15;3.80;99.90
30473;DHT22;17263;48.160;11.452;2023-01-04T07:20:42;3.80;99.90
30473;DHT22;17263;48.160;11.452;2023-01-04T07:23:08;3.80;99.90
30473;DHT22;17263;48.160;11.452;2023-01-04T07:25:34;3.80;99.90
30473;DHT22;17263;48.160;11.452;2023-01-04T07:28:01;3.80;99.90
30473;DHT22;17263;48.160;11.452;2023-01-04T07:30:27;3.90;99.90
30473;DHT22;17263;48.160;11.452;2023-01-04T07:32:54;3.90;99.90
30473;DHT22;17263;48.160;11.452;2023-01-04T07:35:21;3.90;99.90
30473;DHT22;17263;48.160;11.452;2023-01-04T07:37:47;4.00;99.90
30473;DHT22;17263;48.160;11.452;2023-01-04T07:40:13;4.00;99.90
30473;DHT22;17263;48.160;11.452;2023-01-04T07:42:39;4.00;99.90
30473;DHT22;17263;48.160;11.452;2023-01-04T07:45:06;4.10;99.90
30473;DHT22;17263;48.160;11.452;2023-01-04T07:47:32;4.10;99.90
30473;DHT22;17263;48.160;11.452;2023-01-04T07:49:58;4.10;99.90
30473;DHT22;17263;48.160;11.452;2023-01-04T07:52:25;4.20;99.90
30473;DHT22;17263;48.160;11.452;2023-01-04T07:54:52;4.20;99.90
30473;DHT22;17263;48.160;11.452;2023-01-04T07:57:18;4.20;99.90
30473;DHT22;17263;48.160;11.452;2023-01-04T07:59:44;4.20;99.90
30473;DHT22;17263;48.160;11.452;2023-01-04T08:02:11;4.30;99.90
30473;DHT22;17263;48.160;11.452;2023-01-04T08:04:38;4.40;99.90
30473;DHT22;17263;48.160;11.452;2023-01-04T08:07:04;4.40;99.90
30473;DHT22;17263;48.160;11.452;2023-01-04T08:09:31;4.50;99.90
30473;DHT22;17263;48.160;11.452;2023-01-04T08:11:57;4.60;99.90
30473;DHT22;17263;48.160;11.452;2023-01-04T08:14:23;4.60;99.90
30473;DHT22;17263;48.160;11.452;2023-01-04T08:16:49;4.70;99.90
30473;DHT22;17263;48.160;11.452;2023-01-04T08:19:20;4.70;99.90
30473;DHT22;17263;48.160;11.452;2023-01-04T08:21:46;4.70;99.90
30473;DHT22;17263;48.160;11.452;2023-01-04T08:24:15;4.80;99.90
30473;DHT22;17263;48.160;11.452;2023-01-04T08:26:41;5.00;99.90
30473;DHT22;17263;48.160;11.452;2023-01-04T08:29:08;5.00;99.90
30473;DHT22;17263;48.160;11.452;2023-01-04T08:31:34;5.20;99.90
30473;DHT22;17263;48.160;11.452;2023-01-04T08:34:03;5.60;99.90
30473;DHT22;17263;48.160;11.452;2023-01-04T08:36:42;6.10;99.90
30473;DHT22;17263;48.160;11.452;2023-01-04T08:39:08;6.40;99.90
30473;DHT22;17263;48.160;11.452;2023-01-04T08:41:34;6.70;99.90
30473;DHT22;17263;48.160;11.452;2023-01-04T08:44:23;7.10;99.90
30473;DHT22;17263;48.160;11.452;2023-01-04T08:46:51;7.60;99.90
30473;DHT22;17263;48.160;11.452;2023-01-04T08:49:17;8.10;99.90
30473;DHT22;17263;48.160;11.452;2023-01-04T08:51:43;8.50;99.90
30473;DHT22;17263;48.160;11.452;2023-01-04T08:54:10;8.80;99.90
30473;DHT22;17263;48.160;11.452;2023-01-04T08:56:36;8.70;99.90
30473;DHT22;17263;48.160;11.452;2023-01-04T08:59:03;8.60;99.90
30473;DHT22;17263;48.160;11.452;2023-01-04T09:01:31;8.50;99.90
30473;DHT22;17263;48.160;11.452;2023-01-04T09:03:57;8.40;99.90
30473;DHT22;17263;48.160;11.452;2023-01-04T09:06:23;8.20;99.90
30473;DHT22;17263;48.160;11.452;2023-01-04T09:08:49;8.00;99.90
30473;DHT22;17263;48.160;11.452;2023-01-04T09:11:17;7.80;99.90
30473;DHT22;17263;48.160;11.452;2023-01-04T09:13:44;7.70;99.90
30473;DHT22;17263;48.160;11.452;2023-01-04T09:16:15;7.60;99.90
30473;DHT22;17263;48.160;11.452;2023-01-04T09:18:42;7.50;99.90
30473;DHT22;17263;48.160;11.452;2023-01-04T09:21:11;7.40;99.90
30473;DHT22;17263;48.160;11.452;2023-01-04T09:23:38;7.40;99.90
30473;DHT22;17263;48.160;11.452;2023-01-04T09:26:06;7.40;99.90
30473;DHT22;17263;48.160;11.452;2023-01-04T09:28:32;7.50;99.90
30473;DHT22;17263;48.160;11.452;2023-01-04T09:31:06;7.60;99.90
30473;DHT22;17263;48.160;11.452;2023-01-04T09:33:32;7.80;99.90
30473;DHT22;17263;48.160;11.452;2023-01-04T09:36:03;8.00;99.90
30473;DHT22;17263;48.160;11.452;2023-01-04T09:38:30;8.20;99.90
30473;DHT22;17263;48.160;11.452;2023-01-04T09:41:04;8.30;99.90
30473;DHT22;17263;48.160;11.452;2023-01-04T09:43:48;8.50;99.90
30473;DHT22;17263;48.160;11.452;2023-01-04T09:46:48;8.70;99.90
30473;DHT22;17263;48.160;11.452;2023-01-04T09:49:43;8.70;99.90
30473;DHT22;17263;48.160;11.452;2023-01-04T09:52:22;8.70;99.90
30473;DHT22;17263;48.160;11.452;2023-01-04T09:54:53;8.70;99.90
30473;DHT22;17263;48.160;11.452;2023-01-04T09:57:27;8.70;99.90
30473;DHT22;17263;48.160;11.452;2023-01-04T09:59:59;8.80;99.90
30473;DHT22;17263;48.160;11.452;2023-01-04T10:02:39;8.70;99.90
30473;DHT22;17263;48.160;11.452;2023-01-04T10:05:07;8.80;99.90
30473;DHT22;17263;48.160;11.452;2023-01-04T10:07:39;8.80;99.90
30473;DHT22;17263;48.160;11.452;2023-01-04T10:10:08;8.80;99.90
30473;DHT22;17263;48.160;11.452;2023-01-04T10:16:35;8.80;99.90
30473;DHT22;17263;48.160;11.452;2023-01-04T10:21:48;9.10;99.90
30473;DHT22;17263;48.160;11.452;2023-01-04T10:27:33;9.30;99.90
30473;DHT22;17263;48.160;11.452;2023-01-04T10:32:54;9.30;99.90
30473;DHT22;17263;48.160;11.452;2023-01-04T10:35:25;9.30;99.90
30473;DHT22;17263;48.160;11.452;2023-01-04T10:37:57;9.30;99.90
30473;DHT22;17263;48.160;11.452;2023-01-04T10:40:24;9.40;99.90
30473;DHT22;17263;48.160;11.452;2023-01-04T10:43:04;9.40;99.90
30473;DHT22;17263;48.160;11.452;2023-01-04T10:51:00;9.40;99.90
30473;DHT22;17263;48.160;11.452;2023-01-04T10:53:32;9.20;99.90
30473;DHT22;17263;48.160;11.452;2023-01-04T10:56:08;9.20;99.90
30473;DHT22;17263;48.160;11.452;2023-01-04T10:58:43;9.10;99.90
30473;DHT22;17263;48.160;11.452;2023-01-04T11:01:17;9.00;99.90
30473;DHT22;17263;48.160;11.452;2023-01-04T11:03:50;8.90;99.90
30473;DHT22;17263;48.160;11.452;2023-01-04T11:06:52;8.90;99.90
30473;DHT22;17263;48.160;11.452;2023-01-04T11:09:25;8.90;99.90
30473;DHT22;17263;48.160;11.452;2023-01-04T11:11:54;8.90;99.90
30473;DHT22;17263;48.160;11.452;2023-01-04T11:14:21;8.90;99.90
30473;DHT22;17263;48.160;11.452;2023-01-04T11:16:51;8.90;99.90
30473;DHT22;17263;48.160;11.452;2023-01-04T11:19:20;8.90;99.90
30473;DHT22;17263;48.160;11.452;2023-01-04T11:24:50;9.00;99.90
30473;DHT22;17263;48.160;11.452;2023-01-04T11:27:21;9.10;99.90
30473;DHT22;17263;48.160;11.452;2023-01-04T11:29:55;9.10;99.90
30473;DHT22;17263;48.160;11.452;2023-01-04T11:32:43;9.10;99.90
30473;DHT22;17263;48.160;11.452;2023-01-04T11:35:12;9.10;99.90
30473;DHT22;17263;48.160;11.452;2023-01-04T11:37:39;9.10;99.90
30473;DHT22;17263;48.160;11.452;2023-01-04T11:40:19;9.20;99.90
30473;DHT22;17263;48.160;11.452;2023-01-04T11:42:48;9.20;99.90
30473;DHT22;17263;48.160;11.452;2023-01-04T11:45:25;9.30;99.90
30473;DHT22;17263;48.160;11.452;2023-01-04T11:47:56;9.30;99.90
30473;DHT22;17263;48.160;11.452;2023-01-04T11:50:40;9.40;99.90
30473;DHT22;17263;48.160;11.452;2023-01-04T11:55:47;9.50;99.90
30473;DHT22;17263;48.160;11.452;2023-01-04T11:58:15;9.50;99.90
30473;DHT22;17263;48.160;11.452;2023-01-04T12:00:52;9.60;99.90
30473;DHT22;17263;48.160;11.452;2023-01-04T12:03:34;9.70;99.90
30473;DHT22;17263;48.160;11.452;2023-01-04T12:06:06;9.70;99.90
30473;DHT22;17263;48.160;11.452;2023-01-04T12:08:36;9.70;99.90
30473;DHT22;17263;48.160;11.452;2023-01-04T12:11:03;9.80;99.90
30473;DHT22;17263;48.160;11.452;2023-01-04T12:13:33;9.80;99.90
30473;DHT22;17263;48.160;11.452;2023-01-04T12:16:04;9.90;99.90
30473;DHT22;17263;48.160;11.452;2023-01-04T12:18:38;9.90;99.90
30473;DHT22;17263;48.160;11.452;2023-01-04T12:21:13;9.80;99.90
30473;DHT22;17263;48.160;11.452;2023-01-04T12:23:41;9.90;99.90
30473;DHT22;17263;48.160;11.452;2023-01-04T12:26:10;9.90;99.90
30473;DHT22;17263;48.160;11.452;2023-01-04T12:28:45;9.80;99.90
30473;DHT22;17263;48.160;11.452;2023-01-04T12:33:48;9.90;99.90
30473;DHT22;17263;48.160;11.452;2023-01-04T12:36:17;9.90;99.90
30473;DHT22;17263;48.160;11.452;2023-01-04T12:49:58;9.80;99.90
30473;DHT22;17263;48.160;11.452;2023-01-04T12:54:58;9.80;99.90
30473;DHT22;17263;48.160;11.452;2023-01-04T12:57:35;9.80;99.90
30473;DHT22;17263;48.160;11.452;2023-01-04T13:00:06;9.80;99.90
30473;DHT22;17263;48.160;11.452;2023-01-04T13:02:41;9.80;99.90
30473;DHT22;17263;48.160;11.452;2023-01-04T13:07:56;9.90;99.90
30473;DHT22;17263;48.160;11.452;2023-01-04T13:10:33;9.90;99.90
30473;DHT22;17263;48.160;11.452;2023-01-04T13:13:37;9.90;99.90
30473;DHT22;17263;48.160;11.452;2023-01-04T13:16:21;9.90;99.90
30473;DHT22;17263;48.160;11.452;2023-01-04T13:23:53;10.20;99.90
30473;DHT22;17263;48.160;11.452;2023-01-04T13:31:59;10.20;99.90
30473;DHT22;17263;48.160;11.452;2023-01-04T13:34:49;10.10;99.90
30473;DHT22;17263;48.160;11.452;2023-01-04T13:37:35;10.10;99.90
30473;DHT22;17263;48.160;11.452;2023-01-04T13:48:21;10.10;99.90
30473;DHT22;17263;48.160;11.452;2023-01-04T13:51:24;10.10;99.90
30473;DHT22;17263;48.160;11.452;2023-01-04T13:53:58;10.10;99.90
30473;DHT22;17263;48.160;11.452;2023-01-04T13:56:27;10.10;99.90
30473;DHT22;17263;48.160;11.452;2023-01-04T13:58:54;10.10;99.90
30473;DHT22;17263;48.160;11.452;2023-01-04T14:01:29;10.10;99.90
30473;DHT22;17263;48.160;11.452;2023-01-04T14:03:59;10.10;99.90
30473;DHT22;17263;48.160;11.452;2023-01-04T14:06:29;10.10;99.90
30473;DHT22;17263;48.160;11.452;2023-01-04T14:09:00;10.10;99.90
30473;DHT22;17263;48.160;11.452;2023-01-04T14:11:29;10.10;99.90
30473;DHT22;17263;48.160;11.452;2023-01-04T14:14:26;10.00;99.90
30473;DHT22;17263;48.160;11.452;2023-01-04T14:19:47;10.00;99.90
30473;DHT22;17263;48.160;11.452;2023-01-04T14:24:49;10.10;99.90
30473;DHT22;17263;48.160;11.452;2023-01-04T14:27:39;10.10;99.90
30473;DHT22;17263;48.160;11.452;2023-01-04T14:32:40;10.10;99.90
30473;DHT22;17263;48.160;11.452;2023-01-04T14:35:12;10.10;99.90
30473;DHT22;17263;48.160;11.452;2023-01-04T14:37:39;10.10;99.90
30473;DHT22;17263;48.160;11.452;2023-01-04T14:40:25;10.10;99.90
30473;DHT22;17263;48.160;11.452;2023-01-04T14:42:53;10.10;99.90
30473;DHT22;17263;48.160;11.452;2023-01-04T14:45:19;10.10;99.90
30473;DHT22;17263;48.160;11.452;2023-01-04T14:47:45;10.10;99.90
30473;DHT22;17263;48.160;11.452;2023-01-04T14:50:12;10.00;99.90
30473;DHT22;17263;48.160;11.452;2023-01-04T14:52:39;10.00;99.90
30473;DHT22;17263;48.160;11.452;2023-01-04T14:55:05;10.10;99.90
30473;DHT22;17263;48.160;11.452;2023-01-04T14:57:32;10.10;99.90
30473;DHT22;17263;48.160;11.452;2023-01-04T15:00:00;10.10;99.90
30473;DHT22;17263;48.160;11.452;2023-01-04T15:02:26;10.10;99.90
30473;DHT22;17263;48.160;11.452;2023-01-04T15:04:54;10.20;99.90
30473;DHT22;17263;48.160;11.452;2023-01-04T15:09:58;10.10;99.90
30473;DHT22;17263;48.160;11.452;2023-01-04T15:12:24;10.20;99.90
30473;DHT22;17263;48.160;11.452;2023-01-04T15:14:50;10.10;99.90
30473;DHT22;17263;48.160;11.452;2023-01-04T15:17:17;10.10;99.90
30473;DHT22;17263;48.160;11.452;2023-01-04T15:19:43;10.10;99.90
30473;DHT22;17263;48.160;11.452;2023-01-04T15:22:09;10.10;99.90
30473;DHT22;17263;48.160;11.452;2023-01-04T15:24:35;10.00;99.90
30473;DHT22;17263;48.160;11.452;2023-01-04T15:27:01;10.00;99.90
30473;DHT22;17263;48.160;11.452;2023-01-04T15:29:27;10.00;99.90
30473;DHT22;17263;48.160;11.452;2023-01-04T15:31:53;10.00;99.90
30473;DHT22;17263;48.160;11.452;2023-01-04T15:34:19;9.90;99.90
30473;DHT22;17263;48.160;11.452;2023-01-04T15:36:50;9.90;99.90
30473;DHT22;17263;48.160;11.452;2023-01-04T15:39:17;9.80;99.90
30473;DHT22;17263;48.160;11.452;2023-01-04T15:41:43;9.80;99.90
30473;DHT22;17263;48.160;11.452;2023-01-04T15:44:27;9.80;99.90
30473;DHT22;17263;48.160;11.452;2023-01-04T15:46:53;9.90;99.90
30473;DHT22;17263;48.160;11.452;2023-01-04T15:49:19;9.80;99.90
30473;DHT22;17263;48.160;11.452;2023-01-04T15:51:46;9.80;99.90
30473;DHT22;17263;48.160;11.452;2023-01-04T15:54:12;9.80;99.90
30473;DHT22;17263;48.160;11.452;2023-01-04T15:56:38;9.80;99.90
30473;DHT22;17263;48.160;11.452;2023-01-04T15:59:04;9.80;99.90
30473;DHT22;17263;48.160;11.452;2023-01-04T16:01:30;9.80;99.90
30473;DHT22;17263;48.160;11.452;2023-01-04T16:03:56;9.80;99.90
30473;DHT22;17263;48.160;11.452;2023-01-04T16:06:22;9.80;99.90
30473;DHT22;17263;48.160;11.452;2023-01-04T16:08:48;9.80;99.90
30473;DHT22;17263;48.160;11.452;2023-01-04T16:11:18;9.80;99.90
30473;DHT22;17263;48.160;11.452;2023-01-04T16:13:47;9.80;99.90
30473;DHT22;17263;48.160;11.452;2023-01-04T16:16:13;9.80;99.90
30473;DHT22;17263;48.160;11.452;2023-01-04T16:18:44;9.70;99.90
30473;DHT22;17263;48.160;11.452;2023-01-04T16:21:11;9.70;99.90
30473;DHT22;17263;48.160;11.452;2023-01-04T16:23:37;9.70;99.90
30473;DHT22;17263;48.160;11.452;2023-01-04T16:26:09;9.70;99.90
30473;DHT22;17263;48.160;11.452;2023-01-04T16:28:36;9.60;99.90
30473;DHT22;17263;48.160;11.452;2023-01-04T16:31:02;9.70;99.90
30473;DHT22;17263;48.160;11.452;2023-01-04T16:33:29;9.70;99.90
30473;DHT22;17263;48.160;11.452;2023-01-04T16:38:25;9.70;99.90
30473;DHT22;17263;48.160;11.452;2023-01-04T16:40:56;9.70;99.90
30473;DHT22;17263;48.160;11.452;2023-01-04T16:43:22;9.70;99.90
30473;DHT22;17263;48.160;11.452;2023-01-04T16:45:48;9.70;99.90
30473;DHT22;17263;48.160;11.452;2023-01-04T16:48:15;9.70;99.90
30473;DHT22;17263;48.160;11.452;2023-01-04T16:50:41;9.70;99.90
30473;DHT22;17263;48.160;11.452;2023-01-04T16:53:07;9.60;99.90
30473;DHT22;17263;48.160;11.452;2023-01-04T16:55:33;9.70;99.90
30473;DHT22;17263;48.160;11.452;2023-01-04T16:57:59;9.60;99.90
30473;DHT22;17263;48.160;11.452;2023-01-04T17:00:25;9.70;99.90
30473;DHT22;17263;48.160;11.452;2023-01-04T17:02:51;9.70;99.90
30473;DHT22;17263;48.160;11.452;2023-01-04T17:05:17;9.70;99.90
30473;DHT22;17263;48.160;11.452;2023-01-04T17:07:43;9.70;99.90
30473;DHT22;17263;48.160;11.452;2023-01-04T17:10:09;9.60;99.90
30473;DHT22;17263;48.160;11.452;2023-01-04T17:12:35;9.60;99.90
30473;DHT22;17263;48.160;11.452;2023-01-04T17:15:01;9.60;99.90
30473;DHT22;17263;48.160;11.452;2023-01-04T17:17:27;9.70;99.90
30473;DHT22;17263;48.160;11.452;2023-01-04T17:19:53;9.70;99.90
30473;DHT22;17263;48.160;11.452;2023-01-04T17:22:20;9.60;99.90
30473;DHT22;17263;48.160;11.452;2023-01-04T17:24:46;9.60;99.90
30473;DHT22;17263;48.160;11.452;2023-01-04T17:27:12;9.60;99.90
30473;DHT22;17263;48.160;11.452;2023-01-04T17:29:38;9.50;99.90
30473;DHT22;17263;48.160;11.452;2023-01-04T17:32:04;9.50;99.90
30473;DHT22;17263;48.160;11.452;2023-01-04T17:34:30;9.50;99.90
30473;DHT22;17263;48.160;11.452;2023-01-04T17:36:56;9.50;99.90
30473;DHT22;17263;48.160;11.452;2023-01-04T17:39:22;9.40;99.90